createdAt,value
2019-03-20T00:02:03.882Z,4.20
2019-03-20T00:04:33.186Z,4.20
2019-03-20T00:07:02.038Z,4.10
2019-03-20T00:09:30.839Z,4.10
2019-03-20T00:11:59.684Z,4.00
2019-03-20T00:14:28.519Z,4.00
2019-03-20T00:16:57.439Z,4.00
2019-03-20T00:19:26.380Z,4.00
2019-03-20T00:21:55.196Z,3.90
2019-03-20T00:24:24.023Z,3.90
2019-03-20T00:26:53.302Z,3.90
2019-03-20T00:29:22.199Z,3.80
2019-03-20T00:31:51.065Z,3.70
2019-03-20T00:34:20.020Z,3.70
2019-03-20T00:36:48.883Z,3.70
2019-03-20T00:39:17.755Z,3.80
2019-03-20T00:41:46.590Z,3.80
2019-03-20T00:44:15.593Z,3.80
2019-03-20T00:46:44.460Z,3.80
2019-03-20T00:49:13.300Z,3.80
2019-03-20T00:51:42.102Z,3.80
2019-03-20T00:54:11.304Z,3.80
2019-03-20T00:56:40.118Z,3.70
2019-03-20T00:59:08.939Z,3.70
2019-03-20T01:01:37.877Z,3.70
2019-03-20T01:04:06.782Z,3.60
2019-03-20T01:06:35.743Z,3.60
2019-03-20T01:09:06.379Z,3.60
2019-03-20T01:11:35.300Z,3.60
2019-03-20T01:14:04.226Z,3.50
2019-03-20T01:16:34.072Z,3.50
2019-03-20T01:19:02.968Z,3.50
2019-03-20T01:21:32.049Z,3.50
2019-03-20T01:24:00.975Z,3.50
2019-03-20T01:26:30.082Z,3.50
2019-03-20T01:28:58.916Z,3.50
2019-03-20T01:31:27.836Z,3.40
2019-03-20T01:33:56.948Z,3.40
2019-03-20T01:36:26.015Z,3.40
2019-03-20T01:38:54.876Z,3.30
2019-03-20T01:41:23.698Z,3.30
2019-03-20T01:43:52.675Z,3.30
2019-03-20T01:46:21.576Z,3.30
2019-03-20T01:48:50.420Z,3.30
2019-03-20T01:51:20.730Z,3.30
2019-03-20T01:53:49.827Z,3.30
2019-03-20T01:56:18.814Z,3.30
2019-03-20T01:58:47.834Z,3.30
2019-03-20T02:01:16.842Z,3.20
2019-03-20T02:03:45.935Z,3.20
2019-03-20T02:06:14.927Z,3.20
2019-03-20T02:08:44.105Z,3.10
2019-03-20T02:11:13.362Z,3.10
2019-03-20T02:13:42.192Z,3.10
2019-03-20T02:16:11.075Z,3.10
2019-03-20T02:18:40.055Z,3.00
2019-03-20T02:21:08.894Z,3.10
2019-03-20T02:23:37.773Z,3.00
2019-03-20T02:26:07.143Z,3.00
2019-03-20T02:28:36.357Z,3.10
2019-03-20T02:31:05.667Z,3.10
2019-03-20T02:33:53.688Z,3.10
2019-03-20T02:36:22.988Z,3.00
2019-03-20T02:38:51.834Z,3.00
2019-03-20T02:41:20.662Z,3.00
2019-03-20T02:43:49.515Z,3.00
2019-03-20T02:46:18.354Z,2.90
2019-03-20T02:48:47.340Z,2.90
2019-03-20T02:51:16.932Z,2.80
2019-03-20T02:53:45.801Z,2.80
2019-03-20T02:56:14.972Z,2.70
2019-03-20T02:58:44.196Z,2.70
2019-03-20T03:01:13.173Z,2.80
2019-03-20T03:03:42.224Z,2.80
2019-03-20T03:06:11.179Z,2.80
2019-03-20T03:08:40.070Z,2.80
2019-03-20T03:11:09.258Z,2.70
2019-03-20T03:13:38.110Z,2.70
2019-03-20T03:16:07.042Z,2.70
2019-03-20T03:18:35.877Z,2.70
2019-03-20T03:21:04.891Z,2.70
2019-03-20T03:23:33.716Z,2.60
2019-03-20T03:26:02.552Z,2.70
2019-03-20T03:28:31.395Z,2.60
2019-03-20T03:31:00.509Z,2.60
2019-03-20T03:33:29.376Z,2.50
2019-03-20T03:35:58.327Z,2.60
2019-03-20T03:38:27.175Z,2.50
2019-03-20T03:40:56.479Z,2.60
2019-03-20T03:43:25.423Z,2.60
2019-03-20T03:45:54.403Z,2.50
2019-03-20T03:48:23.535Z,2.50
2019-03-20T03:50:52.477Z,2.50
2019-03-20T03:53:21.292Z,2.50
2019-03-20T03:55:50.208Z,2.50
2019-03-20T03:58:19.107Z,2.40
2019-03-20T04:00:48.111Z,2.40
2019-03-20T04:03:17.069Z,2.40
2019-03-20T04:05:46.360Z,2.40
2019-03-20T04:08:15.358Z,2.40
2019-03-20T04:10:44.161Z,2.30
2019-03-20T04:13:13.385Z,2.40
2019-03-20T04:15:42.295Z,2.40
2019-03-20T04:18:11.226Z,2.50
2019-03-20T04:20:40.456Z,2.40
2019-03-20T04:23:09.683Z,2.40
2019-03-20T04:25:38.546Z,2.40
2019-03-20T04:28:07.492Z,2.30
2019-03-20T04:30:36.316Z,2.30
2019-03-20T04:33:05.553Z,2.30
2019-03-20T04:35:34.469Z,2.30
2019-03-20T04:38:03.419Z,2.30
2019-03-20T04:40:32.369Z,2.20
2019-03-20T04:43:01.283Z,2.20
2019-03-20T04:45:30.197Z,2.20
2019-03-20T04:47:59.055Z,2.30
2019-03-20T04:50:27.943Z,2.30
2019-03-20T04:52:56.813Z,2.30
2019-03-20T04:55:25.696Z,2.30
2019-03-20T04:57:54.537Z,2.30
2019-03-20T05:00:23.570Z,2.30
2019-03-20T05:02:52.459Z,2.30
2019-03-20T05:05:21.404Z,2.30
2019-03-20T05:07:50.221Z,2.30
2019-03-20T05:10:19.166Z,2.30
2019-03-20T05:12:48.123Z,2.30
2019-03-20T05:15:17.004Z,2.30
2019-03-20T05:17:46.210Z,2.30
2019-03-20T05:20:15.199Z,2.30
2019-03-20T05:22:44.054Z,2.30
2019-03-20T05:25:13.065Z,2.40
2019-03-20T05:27:42.146Z,2.50
2019-03-20T05:30:12.051Z,2.60
2019-03-20T05:32:41.179Z,2.50
2019-03-20T05:35:10.506Z,2.60
2019-03-20T05:37:39.616Z,2.60
2019-03-20T05:40:09.799Z,2.60
2019-03-20T05:42:38.799Z,2.60
2019-03-20T05:45:09.109Z,2.60
2019-03-20T05:47:38.059Z,2.60
2019-03-20T05:50:07.431Z,2.60
2019-03-20T05:52:36.260Z,2.60
2019-03-20T05:55:05.528Z,2.70
2019-03-20T05:57:34.657Z,2.60
2019-03-20T06:00:04.758Z,2.60
2019-03-20T06:02:34.196Z,2.60
2019-03-20T06:05:03.263Z,2.60
2019-03-20T06:07:32.116Z,2.70
2019-03-20T06:10:01.023Z,2.70
2019-03-20T06:12:30.200Z,2.70
2019-03-20T06:14:59.139Z,2.70
2019-03-20T06:17:28.127Z,2.70
2019-03-20T06:19:57.009Z,2.70
2019-03-20T06:22:25.903Z,2.80
2019-03-20T06:24:54.759Z,2.80
2019-03-20T06:27:23.628Z,2.80
2019-03-20T06:29:52.763Z,2.90
2019-03-20T06:32:21.634Z,2.90
2019-03-20T06:34:55.271Z,3.00
2019-03-20T06:37:32.217Z,3.10
2019-03-20T06:39:55.220Z,3.10
2019-03-20T06:42:24.142Z,3.30
2019-03-20T06:44:53.139Z,3.40
2019-03-20T06:47:22.668Z,3.50
2019-03-20T06:49:51.580Z,3.70
2019-03-20T06:52:21.522Z,3.90
2019-03-20T06:54:50.394Z,4.00
2019-03-20T06:57:19.791Z,4.30
2019-03-20T07:00:28.652Z,4.40
2019-03-20T07:02:58.331Z,4.60
2019-03-20T07:05:50.625Z,4.70
2019-03-20T07:08:21.227Z,4.90
2019-03-20T07:11:11.509Z,4.90
2019-03-20T07:13:40.950Z,4.90
2019-03-20T07:16:10.316Z,5.10
2019-03-20T07:18:39.674Z,5.20
2019-03-20T07:21:08.904Z,5.20
2019-03-20T07:23:37.818Z,5.30
2019-03-20T07:26:06.902Z,5.40
2019-03-20T07:28:35.748Z,5.50
2019-03-20T07:31:14.645Z,5.60
2019-03-20T07:33:35.895Z,5.70
2019-03-20T07:36:05.053Z,5.70
2019-03-20T07:38:34.380Z,5.90
2019-03-20T07:41:03.307Z,5.90
2019-03-20T07:43:32.236Z,5.90
2019-03-20T07:46:01.223Z,6.10
2019-03-20T07:48:30.469Z,6.10
2019-03-20T07:50:59.380Z,6.20
2019-03-20T07:53:28.212Z,6.40
2019-03-20T07:55:57.521Z,6.50
2019-03-20T07:58:26.359Z,6.40
2019-03-20T08:00:55.263Z,6.60
2019-03-20T08:03:24.371Z,6.60
2019-03-20T08:05:53.338Z,6.60
2019-03-20T08:08:22.195Z,6.60
2019-03-20T08:10:51.228Z,6.60
2019-03-20T08:13:20.087Z,6.70
2019-03-20T08:16:08.290Z,6.90
2019-03-20T08:18:37.703Z,6.90
2019-03-20T08:21:06.863Z,6.90
2019-03-20T08:23:39.542Z,6.90
2019-03-20T08:26:08.863Z,7.00
2019-03-20T08:28:37.742Z,7.20
2019-03-20T08:31:06.744Z,7.30
2019-03-20T08:33:35.714Z,7.60
2019-03-20T08:36:05.141Z,7.40
2019-03-20T08:38:34.055Z,7.40
2019-03-20T08:41:02.975Z,7.60
2019-03-20T08:43:32.013Z,7.70
2019-03-20T08:46:00.843Z,7.90
2019-03-20T08:48:29.987Z,7.90
2019-03-20T08:50:58.897Z,7.90
2019-03-20T08:53:27.804Z,8.10
2019-03-20T08:55:57.251Z,8.00
2019-03-20T08:58:26.307Z,8.20
2019-03-20T09:00:55.194Z,8.30
2019-03-20T09:03:24.115Z,8.30
2019-03-20T09:05:56.022Z,8.40
2019-03-20T09:08:29.252Z,8.40
2019-03-20T09:10:55.483Z,8.50
2019-03-20T09:13:24.422Z,8.50
2019-03-20T09:15:53.625Z,8.50
2019-03-20T09:18:22.616Z,8.60
2019-03-20T09:20:51.701Z,8.80
2019-03-20T09:23:20.535Z,9.00
2019-03-20T09:25:49.519Z,9.10
2019-03-20T09:28:18.509Z,9.10
2019-03-20T09:30:47.738Z,9.30
2019-03-20T09:33:16.619Z,9.40
2019-03-20T09:35:45.819Z,9.40
2019-03-20T09:38:14.722Z,9.50
2019-03-20T09:40:43.854Z,9.80
2019-03-20T09:43:13.027Z,9.80
2019-03-20T09:45:41.927Z,10.00
2019-03-20T09:48:11.475Z,9.90
2019-03-20T09:50:40.461Z,10.00
2019-03-20T09:53:09.782Z,9.90
2019-03-20T09:55:39.399Z,10.10
2019-03-20T09:58:11.905Z,10.00
2019-03-20T10:00:40.237Z,10.20
2019-03-20T10:03:10.010Z,10.30
2019-03-20T10:05:39.265Z,10.40
2019-03-20T10:08:08.166Z,10.50
2019-03-20T10:10:40.253Z,10.90
2019-03-20T10:13:09.801Z,10.80
2019-03-20T10:15:38.685Z,11.00
2019-03-20T10:18:07.764Z,11.20
2019-03-20T10:20:36.798Z,11.90
2019-03-20T10:23:05.842Z,11.90
2019-03-20T10:25:44.171Z,11.70
2019-03-20T10:28:05.433Z,11.80
2019-03-20T10:30:34.308Z,12.20
2019-03-20T10:33:03.233Z,12.40
2019-03-20T10:35:32.352Z,12.50
2019-03-20T10:38:01.272Z,12.60
2019-03-20T10:40:30.440Z,12.30
2019-03-20T10:42:59.371Z,11.80
2019-03-20T10:45:28.363Z,12.20
2019-03-20T10:47:57.357Z,12.30
2019-03-20T10:50:26.779Z,12.20
2019-03-20T10:52:55.799Z,12.20
2019-03-20T10:55:25.006Z,12.10
2019-03-20T10:57:54.008Z,12.30
2019-03-20T11:00:23.513Z,12.30
2019-03-20T11:02:52.992Z,12.80
2019-03-20T11:05:22.218Z,12.70
2019-03-20T11:07:51.216Z,13.00
2019-03-20T11:10:21.575Z,13.10
2019-03-20T11:12:50.541Z,13.50
2019-03-20T11:15:19.693Z,13.50
2019-03-20T11:17:49.141Z,13.30
2019-03-20T11:20:18.092Z,13.10
2019-03-20T11:22:47.479Z,13.10
2019-03-20T11:25:17.699Z,13.50
2019-03-20T11:27:46.622Z,13.40
2019-03-20T11:30:22.862Z,13.20
2019-03-20T11:32:51.792Z,13.40
2019-03-20T11:35:20.884Z,13.70
2019-03-20T11:37:49.918Z,13.70
2019-03-20T11:40:24.293Z,13.70
2019-03-20T11:42:53.387Z,13.80
2019-03-20T11:45:23.560Z,13.70
2019-03-20T11:47:52.991Z,13.70
2019-03-20T11:50:33.040Z,13.70
2019-03-20T11:53:01.955Z,14.10
2019-03-20T11:55:30.873Z,14.10
2019-03-20T11:57:59.849Z,14.10
2019-03-20T12:00:28.953Z,14.10
2019-03-20T12:02:57.919Z,13.80
2019-03-20T12:05:26.891Z,13.30
2019-03-20T12:07:56.428Z,13.80
2019-03-20T12:10:25.621Z,14.00
2019-03-20T12:12:54.533Z,13.70
2019-03-20T12:15:23.533Z,13.60
2019-03-20T12:17:52.611Z,13.70
2019-03-20T12:20:21.697Z,13.70
2019-03-20T12:22:50.749Z,13.70
2019-03-20T12:25:21.764Z,14.10
2019-03-20T12:27:50.743Z,14.10
2019-03-20T12:30:21.798Z,13.90
2019-03-20T12:32:51.038Z,14.00
2019-03-20T12:35:20.072Z,14.00
2019-03-20T12:37:49.056Z,13.90
2019-03-20T12:40:21.167Z,13.80
2019-03-20T12:42:50.312Z,14.00
2019-03-20T12:45:20.707Z,14.00
2019-03-20T12:47:49.674Z,14.30
2019-03-20T12:50:18.834Z,14.30
2019-03-20T12:52:48.023Z,14.30
2019-03-20T12:55:17.131Z,14.40
2019-03-20T12:57:46.421Z,14.70
2019-03-20T13:00:17.481Z,15.20
2019-03-20T13:02:46.858Z,15.20
2019-03-20T13:05:15.999Z,15.10
2019-03-20T13:07:44.996Z,15.20
2019-03-20T13:10:15.727Z,15.10
2019-03-20T13:12:44.864Z,15.10
2019-03-20T13:15:18.739Z,15.00
2019-03-20T13:17:48.017Z,14.90
2019-03-20T13:20:17.369Z,14.90
2019-03-20T13:22:51.644Z,15.20
2019-03-20T13:25:20.629Z,15.10
2019-03-20T13:27:49.641Z,15.00
2019-03-20T13:30:21.616Z,15.00
2019-03-20T13:32:50.546Z,14.90
2019-03-20T13:35:19.636Z,15.00
2019-03-20T13:37:48.605Z,14.70
2019-03-20T13:40:20.205Z,15.00
2019-03-20T13:42:49.139Z,14.80
2019-03-20T13:45:18.313Z,15.20
2019-03-20T13:47:47.220Z,15.00
2019-03-20T13:50:16.297Z,15.00
2019-03-20T13:52:45.287Z,14.80
2019-03-20T13:55:14.652Z,14.90
2019-03-20T13:57:43.579Z,14.90
2019-03-20T14:00:19.825Z,15.00
2019-03-20T14:02:48.911Z,15.10
2019-03-20T14:05:17.966Z,15.00
2019-03-20T14:07:46.919Z,14.80
2019-03-20T14:10:25.049Z,14.90
2019-03-20T14:12:48.609Z,14.50
2019-03-20T14:15:17.893Z,14.40
2019-03-20T14:17:46.830Z,14.60
2019-03-20T14:20:18.138Z,14.60
2019-03-20T14:22:47.103Z,14.60
2019-03-20T14:25:16.088Z,14.90
2019-03-20T14:27:45.824Z,15.00
2019-03-20T14:30:17.470Z,14.70
2019-03-20T14:32:46.343Z,14.80
2019-03-20T14:35:15.694Z,14.80
2019-03-20T14:37:44.958Z,14.90
2019-03-20T14:40:14.400Z,14.80
2019-03-20T14:42:43.391Z,15.00
2019-03-20T14:45:13.802Z,15.00
2019-03-20T14:47:46.911Z,15.20
2019-03-20T14:50:17.831Z,15.50
2019-03-20T14:52:47.251Z,15.40
2019-03-20T14:55:16.210Z,15.00
2019-03-20T14:57:45.511Z,14.50
2019-03-20T15:00:28.295Z,14.60
2019-03-20T15:02:57.324Z,14.40
2019-03-20T15:05:26.214Z,14.50
2019-03-20T15:07:55.169Z,14.50
2019-03-20T15:10:24.880Z,14.60
2019-03-20T15:12:53.950Z,14.60
2019-03-20T15:15:35.290Z,14.50
2019-03-20T15:18:04.723Z,14.30
2019-03-20T15:20:33.631Z,14.40
2019-03-20T15:23:03.633Z,14.40
2019-03-20T15:25:32.592Z,14.30
2019-03-20T15:28:01.891Z,14.30
2019-03-20T15:30:30.899Z,14.60
2019-03-20T15:33:00.011Z,14.50
2019-03-20T15:35:29.002Z,14.40
2019-03-20T15:37:57.883Z,14.40
2019-03-20T15:40:26.859Z,14.20
2019-03-20T15:42:55.669Z,14.30
2019-03-20T15:45:24.947Z,14.30
2019-03-20T15:47:53.951Z,14.10
2019-03-20T15:50:23.010Z,14.20
2019-03-20T15:52:52.051Z,14.20
2019-03-20T15:55:24.098Z,14.20
2019-03-20T15:57:53.082Z,14.30
2019-03-20T16:00:22.184Z,14.10
2019-03-20T16:02:52.225Z,14.00
2019-03-20T16:05:21.519Z,14.10
2019-03-20T16:07:50.380Z,14.40
2019-03-20T16:10:20.619Z,14.30
2019-03-20T16:12:49.701Z,14.40
2019-03-20T16:15:20.119Z,14.20
2019-03-20T16:17:49.201Z,14.30
2019-03-20T16:20:18.371Z,13.90
2019-03-20T16:22:47.272Z,13.80
2019-03-20T16:25:16.609Z,14.00
2019-03-20T16:27:45.618Z,14.10
2019-03-20T16:30:17.127Z,14.10
2019-03-20T16:32:46.126Z,14.00
2019-03-20T16:35:15.159Z,13.90
2019-03-20T16:37:44.291Z,14.00
2019-03-20T16:40:15.911Z,14.20
2019-03-20T16:42:44.847Z,14.20
2019-03-20T16:45:16.352Z,14.10
2019-03-20T16:47:45.533Z,14.00
2019-03-20T16:50:15.157Z,13.80
2019-03-20T16:52:44.435Z,13.70
2019-03-20T16:55:13.837Z,13.70
2019-03-20T16:57:43.293Z,13.50
2019-03-20T17:00:15.467Z,13.60
2019-03-20T17:02:44.425Z,13.50
2019-03-20T17:05:13.516Z,13.40
2019-03-20T17:07:42.371Z,13.30
2019-03-20T17:10:14.860Z,13.20
2019-03-20T17:12:44.078Z,13.20
2019-03-20T17:15:16.391Z,13.10
2019-03-20T17:17:45.432Z,13.10
2019-03-20T17:20:14.640Z,13.10
2019-03-20T17:22:43.546Z,13.00
2019-03-20T17:25:13.030Z,12.80
2019-03-20T17:27:42.036Z,12.80
2019-03-20T17:30:23.319Z,12.80
2019-03-20T17:32:52.135Z,12.80
2019-03-20T17:35:21.279Z,12.70
2019-03-20T17:37:50.401Z,12.60
2019-03-20T17:40:20.131Z,12.50
2019-03-20T17:42:49.110Z,12.60
2019-03-20T17:45:19.366Z,12.50
2019-03-20T17:47:48.412Z,12.50
2019-03-20T17:50:19.966Z,12.40
2019-03-20T17:52:48.958Z,12.30
2019-03-20T17:55:17.880Z,12.30
2019-03-20T17:57:47.141Z,12.20
2019-03-20T18:00:19.923Z,12.20
2019-03-20T18:02:48.921Z,12.10
2019-03-20T18:05:18.125Z,12.00
2019-03-20T18:07:47.086Z,11.90
2019-03-20T18:10:16.509Z,11.80
2019-03-20T18:12:45.619Z,11.70
2019-03-20T18:15:15.236Z,11.70
2019-03-20T18:17:44.311Z,11.70
2019-03-20T18:20:13.590Z,11.70
2019-03-20T18:22:42.828Z,11.60
2019-03-20T18:25:12.102Z,11.50
2019-03-20T18:27:41.030Z,11.40
2019-03-20T18:30:14.527Z,11.30
2019-03-20T18:32:43.488Z,11.30
2019-03-20T18:35:12.542Z,11.20
2019-03-20T18:37:41.681Z,11.10
2019-03-20T18:40:12.096Z,11.00
2019-03-20T18:42:41.043Z,10.90
2019-03-20T18:45:10.941Z,10.80
2019-03-20T18:47:40.227Z,10.70
2019-03-20T18:50:09.249Z,10.70
2019-03-20T18:52:38.576Z,10.60
2019-03-20T18:55:09.058Z,10.50
2019-03-20T18:57:38.160Z,10.40
2019-03-20T19:00:11.662Z,10.40
2019-03-20T19:02:40.567Z,10.40
2019-03-20T19:05:11.834Z,10.30
2019-03-20T19:07:41.077Z,10.30
2019-03-20T19:10:10.197Z,10.30
2019-03-20T19:12:39.406Z,10.20
2019-03-20T19:15:09.330Z,10.30
2019-03-20T19:17:38.309Z,10.20
2019-03-20T19:20:07.849Z,10.10
2019-03-20T19:22:36.870Z,10.00
2019-03-20T19:25:06.409Z,10.10
2019-03-20T19:27:35.784Z,10.00
2019-03-20T19:30:05.643Z,10.00
2019-03-20T19:32:40.538Z,9.90
2019-03-20T19:35:09.872Z,9.90
2019-03-20T19:37:38.909Z,9.90
2019-03-20T19:40:08.213Z,9.90
2019-03-20T19:42:37.526Z,9.90
2019-03-20T19:45:07.035Z,9.80
2019-03-20T19:47:35.974Z,9.80
2019-03-20T19:50:06.119Z,9.80
2019-03-20T19:52:34.941Z,9.80
2019-03-20T19:55:04.322Z,9.80
2019-03-20T19:57:33.507Z,9.70
2019-03-20T20:00:03.594Z,9.60
2019-03-20T20:02:32.652Z,9.50
2019-03-20T20:05:01.544Z,9.40
2019-03-20T20:07:30.610Z,9.40
2019-03-20T20:09:59.444Z,9.40
2019-03-20T20:12:31.424Z,9.40
2019-03-20T20:14:59.372Z,9.40
2019-03-20T20:17:28.283Z,9.30
2019-03-20T20:19:57.338Z,9.30
2019-03-20T20:22:26.434Z,9.20
2019-03-20T20:24:55.899Z,9.20
2019-03-20T20:27:24.880Z,9.10
2019-03-20T20:29:54.214Z,9.00
2019-03-20T20:32:23.019Z,9.00
2019-03-20T20:34:51.896Z,9.00
2019-03-20T20:37:21.270Z,8.90
2019-03-20T20:39:50.176Z,8.90
2019-03-20T20:42:19.003Z,8.80
2019-03-20T20:44:48.049Z,8.80
2019-03-20T20:47:16.955Z,8.90
2019-03-20T20:49:46.251Z,8.90
2019-03-20T20:52:19.664Z,8.90
2019-03-20T20:54:45.838Z,8.90
2019-03-20T20:57:14.687Z,8.90
2019-03-20T20:59:43.570Z,8.90
2019-03-20T21:02:12.501Z,8.80
2019-03-20T21:04:41.328Z,8.70
2019-03-20T21:07:10.239Z,8.70
2019-03-20T21:09:39.112Z,8.70
2019-03-20T21:12:08.378Z,8.60
2019-03-20T21:14:37.277Z,8.60
2019-03-20T21:17:09.867Z,8.60
2019-03-20T21:19:40.195Z,8.50
2019-03-20T21:22:46.806Z,8.50
2019-03-20T21:25:17.758Z,8.50
2019-03-20T21:28:30.535Z,8.40
2019-03-20T21:31:37.080Z,8.40
2019-03-20T21:34:49.370Z,8.40
2019-03-20T21:37:35.461Z,8.40
2019-03-20T21:40:06.107Z,8.30
2019-03-20T21:43:17.963Z,8.30
2019-03-20T21:46:07.570Z,8.20
2019-03-20T21:48:37.046Z,8.20
2019-03-20T21:51:17.227Z,8.20
2019-03-20T21:54:40.583Z,8.20
2019-03-20T21:57:51.951Z,8.10
2019-03-20T22:01:10.329Z,8.10
2019-03-20T22:03:39.976Z,8.00
2019-03-20T22:06:45.728Z,8.00
2019-03-20T22:09:59.698Z,8.00
2019-03-20T22:12:40.449Z,7.90
2019-03-20T22:15:21.263Z,7.80
2019-03-20T22:18:24.255Z,7.80
2019-03-20T22:21:43.536Z,7.90
2019-03-20T22:24:50.820Z,7.70
2019-03-20T22:27:55.351Z,7.70
2019-03-20T22:30:25.159Z,7.60
2019-03-20T22:33:43.215Z,7.70
2019-03-20T22:36:25.472Z,7.70
2019-03-20T22:39:41.935Z,7.70
2019-03-20T22:42:35.774Z,7.60
2019-03-20T22:45:31.706Z,7.60
2019-03-20T22:48:39.430Z,7.70
2019-03-20T22:51:35.250Z,7.70
2019-03-20T22:54:51.826Z,7.60
2019-03-20T22:57:39.449Z,7.50
2019-03-20T23:00:09.415Z,7.50
2019-03-20T23:02:54.611Z,7.50
2019-03-20T23:05:24.127Z,7.50
2019-03-20T23:07:53.502Z,7.50
2019-03-20T23:10:22.948Z,7.40
2019-03-20T23:12:52.312Z,7.40
2019-03-20T23:15:22.377Z,7.40
2019-03-20T23:17:51.815Z,7.40
2019-03-20T23:20:23.122Z,7.40
2019-03-20T23:22:52.823Z,7.40
2019-03-20T23:25:22.425Z,7.40
2019-03-20T23:27:51.873Z,7.30
2019-03-20T23:30:23.903Z,7.30
2019-03-20T23:32:53.353Z,7.30
2019-03-20T23:35:22.883Z,7.20
2019-03-20T23:37:52.258Z,7.20
2019-03-20T23:40:21.599Z,7.20
2019-03-20T23:42:51.243Z,7.10
2019-03-20T23:45:21.007Z,7.10
2019-03-20T23:48:15.947Z,7.00
2019-03-20T23:50:46.392Z,7.10
2019-03-20T23:53:16.183Z,7.10
2019-03-20T23:55:45.640Z,7.00
2019-03-20T23:58:15.022Z,6.80
